Kenton, Tennessee
Current Conditions -  °F | °C
As of 10:55 AM on Wednesday 22 Oct 2014 (Local Time) from KUCY Reporting Station
Clear Clear  
Wind Chill: 55°   Ceiling: Unl
Heat Index: 55°   Visibility: 10mi
Dew Point: 45°   Wind: 8mph
Humidity: 67%   Direction: 40°NE
Pressure: 30.28"   Gusts: NA
Location:  36.2°N, 89.01°W
Report Text: KUCY 221555Z AUTO 04007KT 10SM CLR 13/07 A3028 RMK
Loading
Personal Weather Stations






























Interactive Weather Map
Tropical Storm Tracking
New forecast layout! Learn more

10-Day Weather Forecast

Advertisements
Track Severe Weather on mobile